עמוד ראשי
METAR-TAF:

METAR-TAF

שדות תעופה :

מאסקט, עומאן

קו רוחב: 23-35N, קו אורך: 058-17E, גובה: 8מטר

תצפית מזג אוויר נוכחית

הדו"ח נערך לפני 1 שעות ו 3דקות, בשעה 01:50 UTC
רוח 3קשר מכיוון דרום-מערב
טמפרטורת 33 צלסיוס
לחות 75%
לחץ 995 hPa
ראות 10 קילומטר או יותר
ללא עננים שבסיסם נמוך מ 5000 רגל או קומולונימבוס

METAR: OOMS 220150Z 23003KT CAVOK 33/28 Q0995 NOSIG

זמן: 06:53 (02:53 UTC)

תחזית

הדו"ח נערך לפני 3 שעות ו 53דקות, בשעה 23:00 UTC
תחזית בתוקף מ 22 ב 00 UTC עד 23 ב 06 UTC
רוח 6קשר מכיוון מערב/צפון-מערב
ראות: 8000מטר
הסתברות 30% :
זמנית מ -
22 ב 00 UTC עד 22 ב 04 UTC
ראות: 4000מטר
עננים בינוניים בגובה 1500רגל
אד
יעשה מ
22 ב 06 UTC עד 22 ב 08 UTC
רוח 12קשר מכיוון צפון-מזרח
יעשה מ
22 ב 18 UTC עד 22 ב 20 UTC
רוח 2קשר עם כיוונים משתנים
יעשה מ
22 ב 21 UTC עד 22 ב 23 UTC
רוח 12קשר מכיוון דרום/דרום-מערב

TAF: OOMS 212300Z 2200/2306 30006KT 8000 NSC PROB30 TEMPO 2200/2204 4000 BR BKN015 BECMG 2206/2208 05012KT BECMG 2218/2220 VRB02KT BECMG 2221/2223 21012KT

תצפיות ותחזיות מזג אוויר לגבי יותר מ- 4,000 שדות תעופה ברחבי העולם. דוחות METAR ו- TAF.

התחנות הזמינות מסומנות בנקודות צהובות ואדומות על גבי המפה.

העבר את העכבר לנקודה הצבעונית על מנת לראות את שם התחנה.

לאחר מכן, לחץ כדי לראות את תוכן ואת תחזיות מזג האוויר.

כדי לשנות את המפה: לחץ על הכפתורים הירוקים עם הפלוס השחור כדי להתקרב; על הכפתור הירוק עם המקף כדי להתרחק; או בחיצים הירוקים למפות סמוכות.


METAR-TAF: